Time;durP1;ratioP1;P1;durP2;ratioP2;P2;SDS_P1;SDS_P2;PMS_P1;PMS_P2;Temp;Humidity;BMP_temperature;BMP_pressure;BME280_temperature;BME280_humidity;BME280_pressure;Samples;Min_cycle;Max_cycle;Signal;HPM_P1;HPM_P2
2021/01/24 03:45:12;;;;;;;22.65;15.52;;;7.10;78.40;;;;;;5745643;24;20744;31
2021/01/24 03:47:38;;;;;;;18.80;13.48;;;7.10;78.30;;;;;;4740853;30;20049;-73
2021/01/24 03:50:05;;;;;;;18.38;13.35;;;7.10;78.20;;;;;;4729715;30;20115;-73
2021/01/24 03:52:31;;;;;;;19.20;14.18;;;7.10;78.30;;;;;;4729911;30;20067;-74
2021/01/24 03:54:57;;;;;;;22.42;15.25;;;7.10;78.30;;;;;;4745358;30;20100;-74
2021/01/24 03:57:23;;;;;;;24.67;15.90;;;7.20;78.20;;;;;;4729746;30;20032;-74
2021/01/24 03:59:51;;;;;;;23.98;16.00;;;7.20;78.00;;;;;;4730029;30;20267;-74
2021/01/24 04:02:17;;;;;;;25.00;17.63;;;7.20;77.90;;;;;;4729570;30;20056;-73
2021/01/24 04:04:44;;;;;;;27.23;18.30;;;7.20;77.90;;;;;;4730263;30;20100;-74
2021/01/24 04:07:10;;;;;;;25.55;17.30;;;7.20;77.80;;;;;;4729706;30;20275;-74
2021/01/24 04:09:36;;;;;;;29.98;19.02;;;7.20;77.70;;;;;;4745409;30;20190;-74
2021/01/24 04:12:02;;;;;;;26.70;17.55;;;7.20;78.10;;;;;;4729809;30;20086;-73
2021/01/24 04:14:28;;;;;;;25.85;17.00;;;7.20;77.30;;;;;;4729968;30;20064;-74
2021/01/24 04:16:53;;;;;;;30.42;20.08;;;7.10;76.90;;;;;;4745027;30;20044;-74
2021/01/24 04:19:19;;;;;;;28.67;18.63;;;7.10;77.00;;;;;;4745214;30;20041;-74
2021/01/24 04:21:45;;;;;;;29.05;19.55;;;6.90;77.10;;;;;;4744167;30;20040;-74
2021/01/24 04:24:11;;;;;;;26.40;17.80;;;6.90;77.30;;;;;;4758906;30;20060;-73
2021/01/24 04:26:36;;;;;;;26.83;18.05;;;6.90;77.40;;;;;;4730456;30;20293;-74
2021/01/24 04:29:02;;;;;;;30.63;18.92;;;6.90;77.20;;;;;;4762780;30;20039;-73
2021/01/24 04:31:28;;;;;;;25.38;17.67;;;7.00;77.00;;;;;;4746871;30;20120;-73
2021/01/24 04:33:54;;;;;;;25.98;17.25;;;7.00;76.70;;;;;;4747032;30;20032;-73
2021/01/24 04:36:19;;;;;;;27.83;18.10;;;6.90;76.40;;;;;;4762385;30;20032;-73
2021/01/24 04:38:45;;;;;;;32.90;20.20;;;6.90;76.30;;;;;;4762338;30;20395;-74
2021/01/24 04:41:11;;;;;;;27.73;18.65;;;6.90;76.40;;;;;;4746775;30;20079;-74
2021/01/24 04:43:37;;;;;;;27.40;17.50;;;6.80;76.60;;;;;;4762629;30;20091;-73
2021/01/24 04:46:03;;;;;;;30.52;20.30;;;6.70;76.70;;;;;;4741824;30;20059;-73
2021/01/24 04:48:30;;;;;;;30.25;19.67;;;6.70;77.00;;;;;;4744803;30;20072;-73
2021/01/24 04:50:56;;;;;;;28.38;17.52;;;6.70;77.00;;;;;;4729082;30;20027;-73
2021/01/24 04:53:22;;;;;;;32.38;19.55;;;6.70;77.20;;;;;;4744669;30;20060;-73
2021/01/24 04:55:50;;;;;;;31.23;19.42;;;6.60;77.30;;;;;;4744801;30;20035;-73
2021/01/24 04:58:17;;;;;;;31.23;18.35;;;6.60;77.40;;;;;;4743599;30;20029;-73
2021/01/24 05:00:43;;;;;;;31.38;19.70;;;6.60;77.60;;;;;;4744598;30;20036;-72
2021/01/24 05:03:09;;;;;;;30.05;18.42;;;6.50;77.90;;;;;;4743552;30;20032;-73
2021/01/24 05:05:35;;;;;;;30.80;18.90;;;6.40;78.00;;;;;;4744627;30;20051;-72
2021/01/24 05:08:01;;;;;;;30.02;19.10;;;6.40;78.50;;;;;;4757240;30;20028;-72
2021/01/24 05:10:28;;;;;;;36.58;21.10;;;6.40;78.50;;;;;;4744149;30;20036;-72
2021/01/24 05:12:55;;;;;;;32.28;20.15;;;6.40;78.50;;;;;;4744722;30;20040;-72
2021/01/24 05:15:21;;;;;;;35.42;21.55;;;6.40;78.60;;;;;;4744582;30;20096;-73
2021/01/24 05:17:52;;;;;;;30.23;20.25;;;6.40;78.80;;;;;;4744241;30;20083;-72
2021/01/24 05:20:21;;;;;;;33.38;20.67;;;6.50;78.60;;;;;;4728767;30;20036;-72
2021/01/24 05:22:47;;;;;;;33.63;21.13;;;6.40;78.70;;;;;;4728752;30;20025;-72
2021/01/24 05:25:16;;;;;;;34.83;21.45;;;6.40;78.70;;;;;;4743313;30;20028;-72
2021/01/24 05:27:42;;;;;;;31.08;19.30;;;6.40;78.70;;;;;;4737514;30;20189;-72
2021/01/24 05:30:11;;;;;;;34.45;20.90;;;6.50;78.60;;;;;;4761910;30;20100;-73
2021/01/24 05:32:43;;;;;;;32.65;19.25;;;6.50;78.50;;;;;;4761923;30;20032;-72
2021/01/24 05:35:11;;;;;;;33.92;20.17;;;6.50;78.40;;;;;;4762002;30;20300;-72
2021/01/24 05:37:38;;;;;;;32.60;20.25;;;6.50;78.40;;;;;;4746120;30;20040;-73
2021/01/24 05:40:05;;;;;;;;;;;6.50;78.40;;;;;;4746288;30;20024;-72
2021/01/24 05:42:37;;;;;;;33.72;19.75;;;6.60;78.20;;;;;;4762107;30;19910;-72
2021/01/24 05:45:16;;;;;;;33.97;20.33;;;6.50;78.10;;;;;;4762022;30;20029;-72
2021/01/24 05:47:47;;;;;;;32.88;19.48;;;6.50;77.90;;;;;;4745176;30;20033;-72
2021/01/24 05:50:14;;;;;;;31.80;20.13;;;6.50;77.80;;;;;;4744357;30;20047;-73
2021/01/24 05:52:45;;;;;;;31.73;20.08;;;6.50;77.70;;;;;;4744199;30;20037;-72
2021/01/24 05:55:27;;;;;;;34.78;20.98;;;6.40;77.70;;;;;;4744049;30;20131;-72
2021/01/24 05:57:53;;;;;;;33.55;20.60;;;6.40;77.60;;;;;;4729973;30;20033;-72
2021/01/24 06:00:20;;;;;;;37.92;23.00;;;6.40;77.80;;;;;;4739630;30;20044;-72
2021/01/24 06:02:45;;;;;;;41.70;24.58;;;6.40;77.90;;;;;;4753114;30;20032;-72
2021/01/24 06:05:11;;;;;;;40.13;23.30;;;6.30;78.00;;;;;;4733105;30;20035;-72
2021/01/24 06:07:37;;;;;;;40.38;23.20;;;6.30;78.20;;;;;;4751121;30;20028;-72
2021/01/24 06:10:03;;;;;;;48.30;28.23;;;6.30;78.40;;;;;;4750910;30;20033;-73
2021/01/24 06:12:30;;;;;;;52.78;27.98;;;6.20;78.50;;;;;;4752934;30;20032;-72
2021/01/24 06:15:00;;;;;;;42.67;24.80;;;6.20;78.50;;;;;;4736002;30;20071;-72
2021/01/24 06:17:34;;;;;;;38.65;22.67;;;6.20;78.60;;;;;;4732734;30;20033;-72
2021/01/24 06:20:02;;;;;;;44.30;25.05;;;6.20;78.50;;;;;;4754997;30;20105;-72
2021/01/24 06:22:34;;;;;;;39.78;23.60;;;6.20;78.60;;;;;;4756697;30;20032;-72
2021/01/24 06:25:04;;;;;;;42.90;23.70;;;6.20;78.40;;;;;;4740901;30;20115;-72
2021/01/24 06:27:37;;;;;;;40.58;24.02;;;6.20;78.40;;;;;;4755209;30;20342;-72
2021/01/24 06:30:07;;;;;;;38.60;23.83;;;6.20;78.50;;;;;;4754354;30;20315;-72
2021/01/24 06:32:33;;;;;;;41.08;24.17;;;6.10;79.10;;;;;;4753816;30;20032;-72
2021/01/24 06:35:23;;;;;;;41.83;24.05;;;6.10;78.60;;;;;;4737909;30;20332;-72
2021/01/24 06:38:01;;;;;;;41.80;23.70;;;6.10;78.60;;;;;;4737192;30;20036;-72
2021/01/24 06:40:32;;;;;;;42.63;25.30;;;6.10;78.20;;;;;;4738835;30;20028;-72
2021/01/24 06:43:03;;;;;;;43.70;24.98;;;6.00;77.90;;;;;;4755865;30;20028;-72
2021/01/24 06:45:28;;;;;;;40.20;23.23;;;6.00;77.90;;;;;;4724723;30;20352;-72
2021/01/24 06:47:56;;;;;;;36.75;21.63;;;6.00;78.10;;;;;;4737031;30;20099;-72
2021/01/24 06:50:40;;;;;;;33.72;20.65;;;5.90;77.80;;;;;;4748822;30;20041;-72
2021/01/24 06:53:26;;;;;;;36.50;21.50;;;5.90;77.60;;;;;;4724963;30;20232;-72
2021/01/24 06:55:52;;;;;;;33.20;19.70;;;5.80;77.30;;;;;;4756089;30;20041;-72
2021/01/24 06:58:32;;;;;;;39.17;24.05;;;5.80;77.30;;;;;;4740268;30;20074;-73
2021/01/24 07:01:20;;;;;;;40.15;22.08;;;5.70;77.50;;;;;;4751259;30;20059;-72
2021/01/24 07:03:46;;;;;;;37.92;23.02;;;5.70;77.60;;;;;;4739140;30;20024;-73
2021/01/24 07:06:32;;;;;;;50.72;26.10;;;5.70;77.60;;;;;;4753880;30;20028;-72
2021/01/24 07:08:58;;;;;;;49.77;27.27;;;5.70;77.80;;;;;;4721822;30;20115;-73
2021/01/24 07:12:00;;;;;;;82.40;40.80;;;5.70;77.90;;;;;;4740748;30;20197;-73
2021/01/24 07:14:31;;;;;;;69.53;34.00;;;5.70;78.40;;;;;;4651039;30;20066;-73
2021/01/24 07:17:07;;;;;;;76.80;37.13;;;5.70;78.50;;;;;;4651929;30;20066;-73
2021/01/24 07:19:35;;;;;;;86.18;41.60;;;5.70;78.60;;;;;;4647824;30;20050;-73
2021/01/24 07:22:04;;;;;;;73.70;38.13;;;5.70;78.60;;;;;;4650526;30;20039;-73
2021/01/24 07:24:30;;;;;;;70.47;35.60;;;5.70;78.80;;;;;;4657773;30;20110;-73
2021/01/24 07:26:56;;;;;;;78.97;37.25;;;5.70;78.80;;;;;;4657870;30;20121;-73
2021/01/24 07:29:22;;;;;;;84.45;38.47;;;5.80;79.20;;;;;;4658123;30;20050;-73
2021/01/24 07:31:49;;;;;;;71.65;34.67;;;5.80;79.70;;;;;;4657105;30;20246;-73
2021/01/24 07:34:18;;;;;;;67.93;33.75;;;5.80;80.20;;;;;;4658059;30;20279;-73
2021/01/24 07:36:47;;;;;;;69.93;35.25;;;5.80;80.70;;;;;;4650609;30;20043;-73
2021/01/24 07:39:12;;;;;;;61.85;31.45;;;5.90;80.80;;;;;;4654679;30;20106;-73
2021/01/24 07:41:38;;;;;;;59.17;30.60;;;5.90;81.20;;;;;;4652833;30;20226;-73
2021/01/24 07:44:04;;;;;;;58.17;30.13;;;5.90;81.10;;;;;;4649356;30;20596;-73
2021/01/24 07:46:30;;;;;;;52.45;30.48;;;6.00;81.10;;;;;;4649446;30;20406;-73
2021/01/24 07:48:56;;;;;;;57.45;30.27;;;6.00;80.90;;;;;;4657339;30;20042;-73
2021/01/24 07:51:22;;;;;;;54.50;28.85;;;6.00;80.90;;;;;;4710751;30;20333;-73
2021/01/24 07:53:48;;;;;;;51.00;27.83;;;6.10;80.80;;;;;;4709662;30;20045;-74
2021/01/24 07:56:14;;;;;;;58.25;28.92;;;6.10;80.60;;;;;;4709861;30;20321;-73
2021/01/24 07:58:40;;;;;;;56.90;29.40;;;6.20;80.50;;;;;;4710420;30;20033;-73
2021/01/24 08:01:07;;;;;;;64.97;31.73;;;6.20;80.60;;;;;;4710581;30;20037;-72
2021/01/24 08:03:34;;;;;;;58.55;31.48;;;6.10;80.80;;;;;;4709434;30;20051;-73
2021/01/24 08:06:11;;;;;;;58.20;30.65;;;6.20;80.90;;;;;;4710621;30;20037;-73
2021/01/24 08:08:41;;;;;;;64.53;31.40;;;6.20;80.90;;;;;;4710511;30;20313;-73
2021/01/24 08:11:07;;;;;;;56.15;31.73;;;6.20;81.00;;;;;;4709131;30;20045;-73
2021/01/24 08:13:35;;;;;;;61.30;31.27;;;6.30;81.10;;;;;;4709030;30;20264;-72
2021/01/24 08:16:05;;;;;;;50.97;29.92;;;6.30;81.00;;;;;;4732669;30;20231;-73
2021/01/24 08:18:32;;;;;;;57.42;29.63;;;6.40;81.00;;;;;;4735330;30;20045;-73
2021/01/24 08:20:58;;;;;;;;;;;6.40;81.10;;;;;;4736137;30;20029;-73
2021/01/24 08:23:24;;;;;;;38.67;21.37;;;6.40;81.40;;;;;;4736537;30;19921;-73
2021/01/24 08:25:52;;;;;;;33.80;20.10;;;6.40;81.40;;;;;;4736300;30;20032;-73
2021/01/24 08:28:21;;;;;;;32.70;18.95;;;6.30;81.50;;;;;;4732525;30;20039;-73
2021/01/24 08:30:47;;;;;;;28.65;19.08;;;6.40;81.40;;;;;;4733715;30;20037;-73
2021/01/24 08:33:18;;;;;;;28.80;17.52;;;6.40;81.50;;;;;;4723051;30;20207;-73
2021/01/24 08:35:44;;;;;;;25.30;16.05;;;6.40;81.70;;;;;;4735364;30;20044;-73
2021/01/24 08:38:12;;;;;;;23.40;14.07;;;6.40;82.00;;;;;;4732450;30;20029;-73
2021/01/24 08:40:39;;;;;;;23.70;14.90;;;6.30;82.10;;;;;;4727319;30;20041;-72
2021/01/24 08:43:06;;;;;;;23.70;14.55;;;6.40;82.60;;;;;;4711756;30;20033;-73
2021/01/24 08:45:32;;;;;;;20.58;14.13;;;6.40;81.90;;;;;;4728151;30;20056;-73
2021/01/24 08:48:00;;;;;;;20.38;13.30;;;6.40;82.00;;;;;;4744624;30;20097;-73
2021/01/24 08:50:34;;;;;;;21.83;14.55;;;6.40;82.30;;;;;;4728727;30;20033;-73
2021/01/24 08:53:04;;;;;;;19.98;13.75;;;6.40;82.10;;;;;;4728971;30;20324;-73
2021/01/24 08:55:31;;;;;;;20.80;13.98;;;6.60;82.00;;;;;;4744708;30;20122;-74
2021/01/24 08:57:57;;;;;;;22.77;14.93;;;6.70;81.80;;;;;;4744491;30;20092;-74
2021/01/24 09:00:23;;;;;;;17.27;9.27;;;6.70;82.00;;;;;;4728713;30;20024;-74
2021/01/24 09:02:49;;;;;;;16.40;10.95;;;6.90;81.00;;;;;;4728767;30;20033;-74
2021/01/24 09:05:36;;;;;;;16.60;11.80;;;7.00;79.90;;;;;;4744236;30;20126;-74
2021/01/24 09:08:02;;;;;;;11.23;7.18;;;7.00;79.60;;;;;;4728891;30;20113;-74
2021/01/24 09:10:31;;;;;;;12.30;8.53;;;6.90;76.80;;;;;;4744623;30;20063;-75
2021/01/24 09:13:02;;;;;;;6.32;4.95;;;7.10;77.90;;;;;;4746491;30;20123;-74
2021/01/24 09:15:30;;;;;;;7.15;5.07;;;7.00;74.50;;;;;;4721986;30;20024;-74
2021/01/24 09:17:57;;;;;;;6.55;4.47;;;7.00;74.60;;;;;;4752881;30;20210;-74
2021/01/24 09:20:23;;;;;;;;;;;7.10;74.20;;;;;;4752193;30;20044;-75
2021/01/24 09:22:50;;;;;;;7.07;4.35;;;7.00;72.70;;;;;;4734073;30;19910;-75
2021/01/24 09:25:16;;;;;;;5.13;3.73;;;7.10;72.40;;;;;;4732912;30;20104;-75
2021/01/24 09:27:42;;;;;;;5.33;3.53;;;7.30;72.60;;;;;;4755105;30;20085;-75
2021/01/24 09:30:13;;;;;;;5.82;3.80;;;7.20;71.70;;;;;;4736219;30;20239;-76
2021/01/24 09:32:39;;;;;;;5.90;3.80;;;7.30;71.60;;;;;;4758800;30;20033;-75
2021/01/24 09:35:07;;;;;;;3.08;2.33;;;7.30;71.30;;;;;;4749761;30;20040;-76
2021/01/24 09:37:33;;;;;;;3.75;2.83;;;7.40;68.80;;;;;;4730396;30;20201;-76
2021/01/24 09:39:59;;;;;;;2.73;2.07;;;7.40;68.70;;;;;;4735543;30;20037;-76
2021/01/24 09:42:25;;;;;;;4.32;2.45;;;7.60;68.00;;;;;;4722914;30;20032;-76
2021/01/24 09:44:50;;;;;;;5.00;1.73;;;7.70;67.80;;;;;;4747100;30;20056;-76
2021/01/24 09:47:16;;;;;;;2.75;1.73;;;7.60;65.90;;;;;;4743721;30;20322;-75
2021/01/24 09:49:42;;;;;;;3.28;2.03;;;7.80;66.10;;;;;;4743266;30;20025;-75
2021/01/24 09:52:08;;;;;;;2.80;1.73;;;7.80;65.20;;;;;;4752736;30;20032;-75
2021/01/24 09:54:33;;;;;;;2.15;1.58;;;7.90;64.80;;;;;;4739404;30;20032;-75
2021/01/24 09:56:59;;;;;;;3.20;1.63;;;7.80;64.00;;;;;;4736978;30;20028;-75
2021/01/24 09:59:25;;;;;;;3.10;2.00;;;7.60;63.30;;;;;;4746970;30;20073;-75
2021/01/24 10:01:50;;;;;;;3.65;1.90;;;7.70;64.10;;;;;;4749182;30;20074;-74
2021/01/24 10:04:16;;;;;;;3.42;2.15;;;7.90;62.80;;;;;;4740503;30;20035;-74
2021/01/24 10:06:42;;;;;;;4.00;2.60;;;7.70;63.50;;;;;;4763290;30;20031;-74
2021/01/24 10:09:08;;;;;;;3.35;2.20;;;7.90;62.80;;;;;;4735335;30;20142;-74
2021/01/24 10:11:34;;;;;;;3.38;2.33;;;7.70;63.30;;;;;;4737403;30;20029;-74
2021/01/24 10:13:59;;;;;;;4.95;3.13;;;7.80;63.00;;;;;;4714350;30;20041;-74
2021/01/24 10:16:25;;;;;;;5.28;3.30;;;7.90;63.30;;;;;;4736879;30;20032;-74
2021/01/24 10:18:51;;;;;;;5.47;3.30;;;8.10;63.10;;;;;;4731506;30;20082;-74
2021/01/24 10:21:17;;;;;;;4.38;3.10;;;8.10;62.70;;;;;;4747276;30;20040;-74
2021/01/24 10:23:43;;;;;;;6.10;3.47;;;8.10;62.10;;;;;;4749579;30;20040;-75
2021/01/24 10:26:08;;;;;;;5.93;3.60;;;8.00;61.80;;;;;;4731404;30;20051;-74
2021/01/24 10:28:34;;;;;;;9.48;3.92;;;8.20;62.60;;;;;;4761755;30;20112;-75
2021/01/24 10:31:01;;;;;;;7.28;4.10;;;8.00;62.40;;;;;;4739737;30;20024;-75
2021/01/24 10:33:27;;;;;;;8.45;3.75;;;8.10;62.60;;;;;;4719549;30;20043;-74
2021/01/24 10:35:52;;;;;;;5.75;3.58;;;8.00;61.70;;;;;;4729578;30;20016;-74
2021/01/24 10:38:22;;;;;;;4.75;3.33;;;8.30;62.40;;;;;;4746655;30;20200;-74
2021/01/24 10:40:49;;;;;;;6.60;3.55;;;8.30;61.30;;;;;;4735586;30;20096;-74
2021/01/24 10:43:15;;;;;;;5.25;3.28;;;8.40;61.90;;;;;;4758360;30;20193;-74
2021/01/24 10:45:41;;;;;;;5.88;3.33;;;8.40;61.00;;;;;;4745452;30;20061;-74
2021/01/24 10:48:07;;;;;;;5.72;3.75;;;8.40;60.40;;;;;;4715988;30;20036;-74
2021/01/24 10:50:38;;;;;;;5.00;3.42;;;8.50;59.80;;;;;;4746326;30;20029;-74
2021/01/24 10:53:04;;;;;;;6.63;4.32;;;8.50;60.30;;;;;;4746528;30;20041;-75
2021/01/24 10:55:31;;;;;;;8.07;4.32;;;8.50;60.10;;;;;;4745389;30;20060;-75
2021/01/24 10:57:57;;;;;;;8.63;3.63;;;8.60;60.10;;;;;;4746434;30;20332;-74
2021/01/24 11:00:23;;;;;;;4.65;3.60;;;8.70;59.30;;;;;;4731164;30;20055;-74
2021/01/24 11:02:49;;;;;;;6.22;3.42;;;8.70;58.40;;;;;;4746992;30;20033;-74
2021/01/24 11:05:15;;;;;;;8.68;4.15;;;8.70;59.30;;;;;;4717854;30;20216;-74
2021/01/24 11:07:40;;;;;;;6.18;4.32;;;9.00;59.90;;;;;;4746610;30;20024;-74
2021/01/24 11:10:08;;;;;;;7.20;4.47;;;9.20;58.80;;;;;;4745868;30;20041;-75
2021/01/24 11:12:34;;;;;;;5.50;4.05;;;9.00;57.60;;;;;;4738069;30;20036;-74
2021/01/24 11:15:00;;;;;;;6.18;4.10;;;8.90;57.80;;;;;;4751297;30;20063;-75
2021/01/24 11:17:26;;;;;;;6.75;4.07;;;8.80;57.60;;;;;;4747634;30;20041;-75
2021/01/24 11:19:52;;;;;;;7.00;4.13;;;9.00;57.60;;;;;;4745055;30;20090;-74
2021/01/24 11:22:19;;;;;;;8.13;4.45;;;9.00;57.00;;;;;;4744327;30;20206;-75
2021/01/24 11:24:45;;;;;;;6.85;4.28;;;9.10;56.60;;;;;;4746440;30;20020;-75
2021/01/24 11:27:11;;;;;;;6.37;4.33;;;9.00;57.10;;;;;;4751030;30;20032;-75
2021/01/24 11:29:37;;;;;;;7.20;3.88;;;9.00;56.50;;;;;;4762798;30;20039;-74
2021/01/24 11:32:04;;;;;;;7.07;4.37;;;9.00;56.30;;;;;;4752778;30;20327;-74
2021/01/24 11:34:29;;;;;;;5.68;3.80;;;9.20;55.70;;;;;;4750227;30;20024;-74
2021/01/24 11:36:59;;;;;;;7.22;4.30;;;9.20;55.40;;;;;;4742750;30;20074;-75
2021/01/24 11:39:25;;;;;;;8.02;4.15;;;9.30;55.50;;;;;;4753261;30;20194;-75
2021/01/24 11:41:51;;;;;;;5.93;3.92;;;9.20;55.40;;;;;;4735533;30;20040;-74
2021/01/24 11:44:17;;;;;;;5.50;3.65;;;9.10;55.30;;;;;;4748307;30;20248;-74
2021/01/24 11:46:43;;;;;;;6.50;4.05;;;8.90;55.70;;;;;;4735733;30;20052;-74
2021/01/24 11:49:09;;;;;;;6.95;3.90;;;9.00;54.60;;;;;;4763086;30;20085;-74
2021/01/24 11:51:35;;;;;;;6.03;3.80;;;9.20;55.50;;;;;;4739580;30;20351;-75
2021/01/24 11:54:00;;;;;;;7.07;3.47;;;9.30;54.00;;;;;;4748983;30;20095;-74
2021/01/24 11:56:26;;;;;;;4.85;3.20;;;9.30;54.20;;;;;;4724414;30;20239;-75
2021/01/24 11:58:52;;;;;;;5.60;3.35;;;9.30;54.20;;;;;;4738571;30;20343;-75
2021/01/24 12:01:18;;;;;;;6.53;2.95;;;9.20;54.20;;;;;;4736518;30;20149;-74
2021/01/24 12:03:43;;;;;;;6.35;3.17;;;9.20;54.50;;;;;;4754453;30;20020;-74
2021/01/24 12:06:09;;;;;;;6.10;3.40;;;9.40;54.50;;;;;;4754468;30;20034;-75
2021/01/24 12:08:35;;;;;;;4.93;3.13;;;9.50;54.10;;;;;;4736309;30;20032;-74
2021/01/24 12:11:01;;;;;;;5.03;3.20;;;9.60;53.80;;;;;;4753218;30;20028;-74
2021/01/24 12:13:26;;;;;;;4.57;3.03;;;9.40;53.30;;;;;;4761646;30;20024;-74
2021/01/24 12:15:52;;;;;;;5.60;3.58;;;9.40;52.30;;;;;;4754417;30;20414;-73
2021/01/24 12:18:18;;;;;;;10.88;3.38;;;9.20;53.00;;;;;;4730755;30;20040;-74
2021/01/24 12:20:43;;;;;;;5.25;3.20;;;9.20;53.50;;;;;;4728993;30;20035;-73
2021/01/24 12:23:09;;;;;;;6.68;3.40;;;9.30;54.40;;;;;;4728827;30;20513;-74
2021/01/24 12:25:35;;;;;;;4.72;2.72;;;9.30;53.20;;;;;;4729082;30;20056;-74
2021/01/24 12:28:00;;;;;;;3.88;2.60;;;8.90;51.20;;;;;;4744230;30;20027;-74
2021/01/24 12:30:26;;;;;;;4.97;2.75;;;8.70;51.70;;;;;;4744395;30;20108;-75
2021/01/24 12:32:52;;;;;;;6.18;2.40;;;8.70;52.00;;;;;;4745861;30;20028;-74
2021/01/24 12:35:18;;;;;;;6.30;3.22;;;8.90;52.60;;;;;;4728779;30;20032;-74
2021/01/24 12:37:44;;;;;;;7.00;4.18;;;9.00;51.80;;;;;;4751757;30;20256;-75
2021/01/24 12:40:10;;;;;;;6.30;3.83;;;9.20;52.30;;;;;;4740790;30;20546;-74
2021/01/24 12:42:36;;;;;;;6.15;4.22;;;9.20;51.70;;;;;;4741208;30;20395;-74
2021/01/24 12:45:03;;;;;;;6.28;3.33;;;9.10;50.90;;;;;;4757444;30;20020;-75
2021/01/24 12:47:28;;;;;;;3.65;2.90;;;9.00;50.60;;;;;;4724378;30;20057;-74
2021/01/24 12:49:54;;;;;;;6.18;3.53;;;9.00;51.30;;;;;;4725296;30;20083;-74
2021/01/24 12:52:20;;;;;;;8.88;5.03;;;9.30;51.20;;;;;;4725449;30;20040;-74
2021/01/24 12:54:46;;;;;;;6.95;3.75;;;9.30;50.40;;;;;;4725155;30;20029;-74
2021/01/24 12:57:11;;;;;;;7.07;2.58;;;9.20;50.50;;;;;;4725224;30;20066;-74
2021/01/24 12:59:37;;;;;;;94.68;40.40;;;9.10;50.20;;;;;;4713348;30;20147;-74
2021/01/24 13:02:04;;;;;;;37.95;21.98;;;9.30;50.00;;;;;;4726485;30;20035;-74
2021/01/24 13:04:31;;;;;;;11.90;7.55;;;9.40;50.20;;;;;;4725090;30;20033;-74
2021/01/24 13:06:57;;;;;;;16.88;9.23;;;9.30;49.50;;;;;;4725463;30;20037;-74
2021/01/24 13:09:22;;;;;;;14.65;8.57;;;9.30;49.40;;;;;;4726156;30;20040;-74
2021/01/24 13:11:48;;;;;;;3.95;3.28;;;9.20;49.30;;;;;;4725530;30;20351;-74
2021/01/24 13:14:14;;;;;;;3.78;2.40;;;9.20;49.20;;;;;;4725015;30;20308;-73
2021/01/24 13:16:40;;;;;;;3.75;2.53;;;9.00;48.60;;;;;;4725478;30;20049;-73
2021/01/24 13:19:05;;;;;;;3.65;2.50;;;9.10;49.10;;;;;;4724983;30;20104;-74
2021/01/24 13:21:31;;;;;;;3.92;2.78;;;9.10;49.20;;;;;;4724413;30;20029;-74
2021/01/24 13:23:57;;;;;;;3.90;1.83;;;9.10;48.90;;;;;;4725623;30;20037;-74
2021/01/24 13:26:22;;;;;;;4.30;1.50;;;9.20;48.90;;;;;;4724571;30;20028;-74
2021/01/24 13:28:48;;;;;;;3.70;2.03;;;9.10;46.60;;;;;;4725097;30;20111;-74
2021/01/24 13:31:14;;;;;;;1.90;1.38;;;9.00;46.50;;;;;;4721433;30;20325;-74
2021/01/24 13:33:39;;;;;;;3.65;1.55;;;8.90;47.00;;;;;;4724707;30;20036;-74
2021/01/24 13:36:05;;;;;;;2.78;1.67;;;8.90;46.00;;;;;;4724569;30;20067;-74
2021/01/24 13:38:31;;;;;;;3.78;1.63;;;8.70;45.70;;;;;;4724528;30;20324;-74
2021/01/24 13:40:57;;;;;;;5.30;1.65;;;8.70;46.20;;;;;;4724623;30;20025;-75
2021/01/24 13:43:22;;;;;;;3.00;1.52;;;8.70;46.00;;;;;;4710682;30;20029;-75
2021/01/24 13:45:48;;;;;;;15.85;6.10;;;8.70;45.50;;;;;;4716500;30;20090;-74
2021/01/24 13:48:14;;;;;;;6.30;2.67;;;8.80;45.50;;;;;;4736319;30;20257;-74
2021/01/24 13:50:40;;;;;;;13.70;6.20;;;8.90;44.80;;;;;;4743368;30;20040;-74
2021/01/24 13:53:05;;;;;;;70.90;25.42;;;8.90;45.70;;;;;;4743584;30;20273;-74
2021/01/24 13:55:31;;;;;;;41.40;15.43;;;8.90;45.60;;;;;;4742016;30;20037;-74
2021/01/24 13:57:57;;;;;;;34.08;14.27;;;8.80;45.10;;;;;;4743173;30;20037;-74
2021/01/24 14:00:23;;;;;;;3.17;1.85;;;8.90;45.30;;;;;;4727712;30;20040;-74
2021/01/24 14:02:48;;;;;;;3.83;2.65;;;8.80;44.60;;;;;;4727748;30;20047;-74
2021/01/24 14:05:14;;;;;;;3.88;1.80;;;8.70;44.80;;;;;;4743343;30;20025;-74
2021/01/24 14:07:40;;;;;;;4.75;2.03;;;8.70;45.10;;;;;;4727795;30;20045;-74
2021/01/24 14:10:06;;;;;;;2.47;1.38;;;8.70;44.80;;;;;;4727463;30;20036;-74
2021/01/24 14:12:32;;;;;;;2.67;1.70;;;8.70;45.10;;;;;;4743529;30;20082;-74
2021/01/24 14:14:58;;;;;;;3.53;1.88;;;8.90;45.80;;;;;;4727552;30;20032;-74
2021/01/24 14:17:24;;;;;;;5.70;2.92;;;9.00;45.40;;;;;;4743162;30;20499;-74
2021/01/24 14:19:49;;;;;;;3.92;2.25;;;9.00;44.80;;;;;;4742840;30;20043;-74
2021/01/24 14:22:15;;;;;;;4.43;1.73;;;8.90;44.00;;;;;;4743493;30;20028;-74
2021/01/24 14:24:44;;;;;;;4.82;2.28;;;8.90;44.60;;;;;;4722714;30;20037;-74
2021/01/24 14:27:10;;;;;;;3.80;1.80;;;8.90;44.60;;;;;;4743663;30;20059;-73
2021/01/24 14:29:36;;;;;;;2.00;1.33;;;9.00;44.70;;;;;;4719447;30;20115;-74
2021/01/24 14:32:02;;;;;;;1.92;1.17;;;8.90;44.50;;;;;;4741581;30;20434;-75
2021/01/24 14:34:27;;;;;;;2.05;1.25;;;8.90;44.90;;;;;;4742499;30;20044;-74
2021/01/24 14:36:53;;;;;;;2.30;1.25;;;8.90;44.50;;;;;;4747555;30;20130;-73
2021/01/24 14:39:19;;;;;;;4.43;1.60;;;9.00;44.70;;;;;;4738391;30;20031;-74
2021/01/24 14:41:45;;;;;;;3.97;1.63;;;9.00;44.70;;;;;;4737676;30;20059;-74
2021/01/24 14:44:11;;;;;;;3.97;2.17;;;8.90;44.50;;;;;;4750676;30;20035;-73
2021/01/24 14:46:37;;;;;;;4.35;2.03;;;8.90;44.50;;;;;;4745306;30;20065;-74
2021/01/24 14:49:02;;;;;;;3.75;1.63;;;8.70;44.10;;;;;;4744718;30;20040;-73
2021/01/24 14:51:28;;;;;;;4.15;1.55;;;8.70;43.70;;;;;;4745040;30;20071;-73
2021/01/24 14:53:55;;;;;;;3.72;2.10;;;8.70;43.80;;;;;;4729738;30;20056;-74
2021/01/24 14:56:20;;;;;;;3.90;2.07;;;8.70;43.60;;;;;;4744498;30;20048;-74
2021/01/24 14:58:49;;;;;;;8.95;1.98;;;8.70;43.90;;;;;;4745097;30;20316;-74
2021/01/24 15:01:16;;;;;;;6.32;2.10;;;8.70;43.00;;;;;;4729339;30;20045;-74
2021/01/24 15:03:41;;;;;;;2.92;1.48;;;8.70;43.60;;;;;;4741911;30;20060;-74
2021/01/24 15:06:07;;;;;;;2.38;1.10;;;8.60;42.80;;;;;;4734155;30;20037;-74
2021/01/24 15:08:33;;;;;;;10.30;5.78;;;8.50;43.20;;;;;;4745351;30;20056;-74
2021/01/24 15:10:59;;;;;;;7.63;3.38;;;8.50;43.30;;;;;;4731303;30;20044;-74
2021/01/24 15:13:24;;;;;;;6.72;1.98;;;8.40;43.20;;;;;;4745741;30;20095;-74
2021/01/24 15:15:50;;;;;;;4.13;1.75;;;8.50;43.60;;;;;;4732334;30;20036;-74
2021/01/24 15:18:16;;;;;;;5.32;3.13;;;8.30;43.40;;;;;;4743322;30;20032;-74
2021/01/24 15:20:41;;;;;;;4.80;2.97;;;8.40;43.90;;;;;;4743155;30;20051;-73
2021/01/24 15:23:07;;;;;;;6.68;3.47;;;8.50;44.00;;;;;;4745365;30;20095;-74
2021/01/24 15:25:34;;;;;;;4.95;3.03;;;8.40;43.60;;;;;;4745393;30;20545;-73
2021/01/24 15:28:00;;;;;;;8.48;5.70;;;8.40;44.00;;;;;;4747064;30;20095;-74
2021/01/24 15:30:26;;;;;;;11.48;6.95;;;8.50;44.30;;;;;;4729267;30;20102;-73
2021/01/24 15:32:51;;;;;;;29.92;17.98;;;8.60;44.40;;;;;;4739351;30;20060;-74
2021/01/24 15:35:17;;;;;;;6.47;4.40;;;8.70;44.00;;;;;;4727719;30;20033;-74
2021/01/24 15:37:43;;;;;;;3.42;1.73;;;8.50;43.90;;;;;;4751826;30;20146;-73
2021/01/24 15:40:10;;;;;;;2.90;1.85;;;8.50;43.60;;;;;;4746642;30;20358;-73
2021/01/24 15:42:39;;;;;;;5.57;2.50;;;8.50;43.90;;;;;;4744934;30;20028;-74
2021/01/24 15:45:06;;;;;;;8.05;3.45;;;8.50;43.60;;;;;;4721736;30;20383;-73
2021/01/24 15:47:32;;;;;;;;;;;8.50;44.00;;;;;;4744051;30;20041;-74
2021/01/24 15:49:58;;;;;;;2.00;1.10;;;8.50;43.20;;;;;;4721460;30;19992;-74
2021/01/24 15:52:24;;;;;;;3.50;1.10;;;8.30;43.20;;;;;;4742631;30;20041;-74
2021/01/24 15:54:49;;;;;;;4.95;2.70;;;8.30;43.30;;;;;;4711788;30;20125;-74
2021/01/24 15:57:15;;;;;;;3.67;1.90;;;8.40;43.80;;;;;;4739838;30;20397;-73
2021/01/24 15:59:41;;;;;;;2.47;1.25;;;8.40;43.60;;;;;;4744569;30;20059;-74
2021/01/24 16:02:06;;;;;;;6.82;1.42;;;8.30;43.10;;;;;;4729766;30;20316;-73
2021/01/24 16:04:32;;;;;;;2.70;1.45;;;8.30;42.90;;;;;;4728311;30;20085;-73
2021/01/24 16:06:58;;;;;;;1.63;1.08;;;8.30;43.00;;;;;;4744681;30;20044;-73
2021/01/24 16:09:24;;;;;;;2.83;1.42;;;8.30;42.40;;;;;;4744218;30;20029;-75
2021/01/24 16:11:51;;;;;;;1.55;1.10;;;8.30;42.30;;;;;;4732954;30;20055;-73
2021/01/24 16:14:17;;;;;;;;;;;8.40;42.70;;;;;;4731179;30;20273;-73
2021/01/24 16:16:42;;;;;;;8.73;5.83;;;8.40;42.30;;;;;;4729162;30;19911;-73
2021/01/24 16:19:08;;;;;;;18.25;11.93;;;8.40;42.10;;;;;;4731704;30;20045;-74
2021/01/24 16:21:34;;;;;;;9.38;6.22;;;8.30;42.50;;;;;;4741409;30;20032;-73
2021/01/24 16:23:59;;;;;;;13.45;7.90;;;8.40;41.90;;;;;;4729352;30;20257;-73
2021/01/24 16:26:25;;;;;;;13.68;4.25;;;8.30;41.80;;;;;;4752458;30;20043;-73
2021/01/24 16:28:51;;;;;;;9.02;5.40;;;8.30;42.10;;;;;;4754249;30;20025;-74
2021/01/24 16:31:17;;;;;;;6.28;4.22;;;8.20;41.20;;;;;;4751718;30;20063;-73
2021/01/24 16:33:42;;;;;;;5.28;2.72;;;8.10;40.40;;;;;;4750898;30;20077;-73